createdAt,value
2022-07-31T00:00:09.133Z,64.45
2022-07-31T00:01:09.139Z,65.58
2022-07-31T00:02:09.110Z,66.23
2022-07-31T00:03:09.179Z,64.61
2022-07-31T00:04:09.097Z,66.23
2022-07-31T00:05:09.085Z,64.61
2022-07-31T00:06:09.089Z,65.26
2022-07-31T00:07:09.058Z,67.19
2022-07-31T00:08:09.049Z,65.42
2022-07-31T00:09:49.210Z,64.45
2022-07-31T00:10:10.044Z,67.03
2022-07-31T00:11:09.069Z,68.48
2022-07-31T00:12:09.013Z,63.00
2022-07-31T00:13:10.453Z,62.36
2022-07-31T00:14:08.994Z,62.36
2022-07-31T00:15:08.985Z,63.33
2022-07-31T00:16:09.003Z,65.74
2022-07-31T00:17:08.974Z,62.36
2022-07-31T00:18:08.961Z,62.20
2022-07-31T00:19:08.945Z,65.10
2022-07-31T00:20:08.938Z,63.49
2022-07-31T00:21:08.924Z,64.29
2022-07-31T00:22:08.933Z,60.91
2022-07-31T00:23:08.909Z,64.61
2022-07-31T00:24:08.898Z,63.81
2022-07-31T00:25:08.883Z,62.84
2022-07-31T00:26:08.878Z,65.26
2022-07-31T00:27:08.881Z,64.78
2022-07-31T00:28:08.855Z,63.81
2022-07-31T00:29:08.848Z,61.87
2022-07-31T00:30:08.858Z,66.06
2022-07-31T00:31:08.824Z,67.35
2022-07-31T00:32:08.840Z,62.84
2022-07-31T00:33:08.804Z,62.20
2022-07-31T00:34:08.793Z,65.58
2022-07-31T00:35:08.785Z,62.52
2022-07-31T00:36:08.773Z,63.33
2022-07-31T00:37:08.799Z,67.03
2022-07-31T00:38:26.132Z,63.33
2022-07-31T00:39:10.740Z,65.10
2022-07-31T00:40:08.735Z,61.71
2022-07-31T00:41:08.724Z,64.45
2022-07-31T00:42:08.706Z,64.61
2022-07-31T00:43:09.718Z,64.13
2022-07-31T00:44:12.160Z,70.58
2022-07-31T00:45:08.692Z,65.74
2022-07-31T00:46:13.609Z,64.29
2022-07-31T00:47:09.674Z,61.39
2022-07-31T00:48:08.670Z,64.94
2022-07-31T00:49:08.724Z,65.10
2022-07-31T00:50:08.651Z,65.10
2022-07-31T00:51:08.627Z,68.00
2022-07-31T00:52:08.619Z,67.51
2022-07-31T00:53:08.638Z,68.16
2022-07-31T00:54:08.599Z,61.87
2022-07-31T00:55:08.585Z,68.48
2022-07-31T00:56:08.582Z,63.81
2022-07-31T00:57:08.572Z,62.52
2022-07-31T00:58:08.587Z,68.48
2022-07-31T00:59:08.557Z,64.45
2022-07-31T01:00:08.555Z,64.61
2022-07-31T01:01:08.634Z,66.71
2022-07-31T01:02:08.521Z,61.71
2022-07-31T01:03:08.512Z,64.45
2022-07-31T01:04:08.521Z,62.36
2022-07-31T01:05:09.492Z,62.36
2022-07-31T01:06:08.482Z,62.20
2022-07-31T01:07:08.470Z,60.59
2022-07-31T01:08:08.467Z,67.03
2022-07-31T01:09:08.469Z,64.13
2022-07-31T01:10:08.441Z,63.65
2022-07-31T01:11:08.429Z,63.16
2022-07-31T01:12:08.409Z,64.29
2022-07-31T01:13:09.414Z,66.39
2022-07-31T01:14:08.427Z,63.00
2022-07-31T01:15:08.393Z,66.55
2022-07-31T01:16:08.393Z,68.16
2022-07-31T01:17:08.377Z,62.84
2022-07-31T01:18:08.368Z,64.78
2022-07-31T01:19:08.402Z,65.90
2022-07-31T01:20:08.344Z,61.07
2022-07-31T01:21:08.349Z,63.97
2022-07-31T01:22:33.578Z,66.71
2022-07-31T01:23:09.317Z,63.65
2022-07-31T01:24:08.346Z,63.16
2022-07-31T01:25:08.297Z,64.29
2022-07-31T01:26:08.288Z,67.03
2022-07-31T01:27:08.276Z,63.49
2022-07-31T01:28:08.270Z,63.49
2022-07-31T01:29:08.259Z,64.78
2022-07-31T01:30:08.262Z,67.19
2022-07-31T01:31:25.942Z,68.80
2022-07-31T01:32:10.232Z,66.87
2022-07-31T01:33:08.220Z,68.16
2022-07-31T01:34:08.221Z,62.68
2022-07-31T01:35:08.216Z,63.16
2022-07-31T01:36:08.187Z,61.55
2022-07-31T01:37:10.333Z,63.49
2022-07-31T01:38:08.173Z,63.65
2022-07-31T01:39:08.171Z,62.68
2022-07-31T01:40:08.170Z,63.65
2022-07-31T01:41:08.149Z,66.23
2022-07-31T01:42:08.137Z,63.97
2022-07-31T01:43:08.130Z,65.42
2022-07-31T01:44:14.126Z,62.84
2022-07-31T01:45:09.121Z,63.16
2022-07-31T01:46:08.101Z,64.61
2022-07-31T01:47:08.089Z,65.42
2022-07-31T01:48:08.077Z,63.97
2022-07-31T01:49:08.094Z,62.84
2022-07-31T01:50:08.088Z,63.33
2022-07-31T01:51:09.047Z,64.13
2022-07-31T01:52:08.110Z,68.80
2022-07-31T01:53:08.050Z,66.55
2022-07-31T01:54:08.020Z,63.49
2022-07-31T01:55:08.053Z,62.68
2022-07-31T01:56:08.003Z,66.39
2022-07-31T01:57:07.991Z,64.94
2022-07-31T01:58:07.979Z,63.81
2022-07-31T01:59:17.116Z,67.35
2022-07-31T02:00:28.619Z,65.42
2022-07-31T02:01:09.133Z,61.55
2022-07-31T02:02:10.023Z,61.39
2022-07-31T02:03:09.894Z,65.58
2022-07-31T02:04:07.918Z,66.06
2022-07-31T02:05:07.917Z,67.51
2022-07-31T02:06:07.917Z,67.68
2022-07-31T02:07:07.891Z,63.97
2022-07-31T02:08:07.881Z,65.10
2022-07-31T02:09:07.869Z,63.16
2022-07-31T02:10:07.867Z,65.74
2022-07-31T02:11:08.473Z,63.65
2022-07-31T02:12:09.478Z,63.65
2022-07-31T02:13:07.833Z,65.10
2022-07-31T02:14:07.822Z,64.61
2022-07-31T02:15:07.844Z,63.00
2022-07-31T02:16:07.861Z,63.49
2022-07-31T02:17:07.792Z,63.33
2022-07-31T02:18:07.783Z,65.58
2022-07-31T02:19:07.773Z,63.33
2022-07-31T02:20:07.780Z,65.26
2022-07-31T02:21:07.792Z,63.65
2022-07-31T02:22:07.745Z,63.65
2022-07-31T02:23:07.734Z,63.65
2022-07-31T02:24:07.721Z,60.91
2022-07-31T02:25:07.718Z,65.58
2022-07-31T02:26:07.707Z,64.29
2022-07-31T02:27:58.173Z,62.52
2022-07-31T02:28:08.686Z,59.78
2022-07-31T02:29:07.670Z,61.55
2022-07-31T02:30:08.670Z,62.04
2022-07-31T02:31:07.644Z,62.36
2022-07-31T02:32:07.687Z,67.68
2022-07-31T02:33:07.633Z,65.90
2022-07-31T02:34:07.624Z,65.26
2022-07-31T02:35:07.611Z,65.26
2022-07-31T02:36:07.599Z,63.33
2022-07-31T02:37:07.607Z,64.61
2022-07-31T02:38:07.582Z,68.16
2022-07-31T02:39:08.572Z,63.65
2022-07-31T02:40:07.607Z,65.58
2022-07-31T02:41:07.562Z,62.84
2022-07-31T02:42:07.804Z,63.00
2022-07-31T02:43:07.536Z,63.49
2022-07-31T02:44:07.513Z,63.00
2022-07-31T02:45:08.518Z,66.87
2022-07-31T02:46:07.508Z,64.94
2022-07-31T02:47:07.528Z,66.87
2022-07-31T02:48:07.487Z,67.35
2022-07-31T02:49:07.514Z,64.13
2022-07-31T02:50:07.468Z,63.65
2022-07-31T02:51:07.458Z,62.84
2022-07-31T02:52:07.575Z,63.81
2022-07-31T02:53:07.447Z,63.00
2022-07-31T02:54:07.428Z,63.49
2022-07-31T02:55:07.442Z,63.97
2022-07-31T02:56:07.417Z,67.03
2022-07-31T02:57:07.414Z,65.90
2022-07-31T02:58:08.409Z,63.00
2022-07-31T02:59:07.387Z,67.84
2022-07-31T03:00:07.371Z,63.81
2022-07-31T03:01:07.476Z,65.90
2022-07-31T03:02:07.575Z,68.00
2022-07-31T03:03:07.362Z,68.80
2022-07-31T03:04:07.371Z,65.58
2022-07-31T03:05:07.337Z,64.94
2022-07-31T03:06:07.314Z,63.16
2022-07-31T03:07:07.305Z,66.39
2022-07-31T03:08:07.324Z,67.03
2022-07-31T03:09:07.287Z,68.48
2022-07-31T03:10:07.284Z,68.32
2022-07-31T03:11:07.276Z,64.61
2022-07-31T03:12:07.416Z,73.48
2022-07-31T03:13:07.266Z,68.64
2022-07-31T03:14:07.237Z,65.58
2022-07-31T03:15:07.230Z,65.74
2022-07-31T03:16:07.242Z,67.84
2022-07-31T03:17:07.212Z,64.45
2022-07-31T03:18:11.333Z,68.00
2022-07-31T03:19:07.192Z,68.32
2022-07-31T03:20:07.179Z,67.03
2022-07-31T03:21:07.168Z,68.32
2022-07-31T03:22:08.688Z,66.71
2022-07-31T03:23:07.154Z,67.03
2022-07-31T03:24:07.157Z,67.19
2022-07-31T03:25:07.139Z,70.25
2022-07-31T03:26:07.123Z,67.35
2022-07-31T03:27:07.112Z,66.39
2022-07-31T03:28:07.105Z,64.61
2022-07-31T03:29:39.143Z,68.64
2022-07-31T03:30:08.088Z,67.03
2022-07-31T03:31:07.072Z,68.16
2022-07-31T03:32:07.292Z,67.35
2022-07-31T03:33:07.051Z,67.51
2022-07-31T03:34:07.054Z,66.55
2022-07-31T03:35:07.033Z,67.51
2022-07-31T03:36:07.024Z,69.61
2022-07-31T03:37:07.012Z,66.39
2022-07-31T03:38:40.524Z,67.19
2022-07-31T03:39:08.022Z,63.65
2022-07-31T03:40:06.981Z,68.32
2022-07-31T03:41:06.972Z,70.42
2022-07-31T03:42:07.214Z,69.61
2022-07-31T03:43:07.950Z,69.13
2022-07-31T03:44:06.981Z,66.23
2022-07-31T03:45:06.933Z,67.51
2022-07-31T03:46:06.909Z,66.55
2022-07-31T03:47:07.921Z,68.32
2022-07-31T03:48:06.901Z,69.93
2022-07-31T03:49:06.933Z,65.90
2022-07-31T03:50:06.896Z,66.87
2022-07-31T03:51:06.871Z,69.13
2022-07-31T03:52:11.765Z,67.51
2022-07-31T03:53:08.856Z,68.16
2022-07-31T03:54:06.840Z,67.68
2022-07-31T03:55:06.846Z,68.00
2022-07-31T03:56:06.824Z,70.58
2022-07-31T03:57:06.814Z,69.61
2022-07-31T03:58:06.805Z,68.00
2022-07-31T03:59:06.796Z,67.51
2022-07-31T04:00:07.971Z,68.32
2022-07-31T04:01:12.262Z,68.00
2022-07-31T04:02:06.900Z,66.06
2022-07-31T04:03:06.753Z,65.74
2022-07-31T04:04:06.743Z,68.48
2022-07-31T04:05:09.910Z,68.00
2022-07-31T04:06:07.730Z,71.06
2022-07-31T04:07:06.714Z,69.45
2022-07-31T04:08:06.706Z,70.42
2022-07-31T04:09:15.390Z,72.99
2022-07-31T04:10:07.709Z,68.80
2022-07-31T04:11:06.679Z,69.13
2022-07-31T04:12:07.200Z,67.51
2022-07-31T04:13:06.660Z,70.09
2022-07-31T04:14:06.643Z,70.25
2022-07-31T04:15:06.671Z,72.03
2022-07-31T04:16:06.626Z,70.58
2022-07-31T04:17:06.610Z,69.45
2022-07-31T04:18:06.641Z,70.58
2022-07-31T04:19:06.596Z,72.03
2022-07-31T04:20:06.673Z,69.61
2022-07-31T04:21:06.579Z,69.77
2022-07-31T04:22:07.194Z,68.48
2022-07-31T04:23:07.159Z,68.96
2022-07-31T04:24:06.553Z,67.19
2022-07-31T04:25:06.541Z,67.68
2022-07-31T04:26:06.542Z,70.90
2022-07-31T04:27:12.299Z,70.58
2022-07-31T04:28:08.527Z,71.54
2022-07-31T04:29:06.506Z,69.29
2022-07-31T04:30:06.529Z,65.74
2022-07-31T04:31:06.498Z,65.58
2022-07-31T04:32:06.829Z,67.51
2022-07-31T04:33:06.465Z,69.29
2022-07-31T04:34:06.447Z,66.55
2022-07-31T04:35:06.443Z,66.87
2022-07-31T04:36:06.471Z,68.48
2022-07-31T04:37:07.423Z,66.39
2022-07-31T04:38:06.408Z,68.64
2022-07-31T04:39:06.399Z,69.61
2022-07-31T04:40:06.390Z,69.13
2022-07-31T04:41:06.410Z,69.61
2022-07-31T04:42:10.882Z,69.61
2022-07-31T04:43:07.359Z,69.29
2022-07-31T04:44:06.348Z,69.93
2022-07-31T04:45:06.339Z,68.16
2022-07-31T04:46:17.252Z,65.74
2022-07-31T04:47:07.334Z,67.84
2022-07-31T04:48:06.310Z,67.03
2022-07-31T04:49:06.350Z,68.48
2022-07-31T04:50:06.291Z,66.87
2022-07-31T04:51:06.283Z,68.00
2022-07-31T04:52:06.529Z,68.64
2022-07-31T04:53:06.263Z,65.42
2022-07-31T04:54:06.248Z,67.03
2022-07-31T04:55:06.243Z,66.39
2022-07-31T04:56:06.234Z,67.19
2022-07-31T04:57:06.239Z,69.77
2022-07-31T04:58:06.227Z,67.68
2022-07-31T04:59:06.215Z,65.74
2022-07-31T05:00:06.191Z,65.26
2022-07-31T05:01:06.184Z,70.90
2022-07-31T05:02:06.687Z,70.90
2022-07-31T05:03:06.174Z,70.74
2022-07-31T05:04:06.152Z,67.68
2022-07-31T05:05:06.148Z,68.00
2022-07-31T05:06:06.137Z,66.55
2022-07-31T05:07:06.142Z,68.16
2022-07-31T05:08:06.116Z,68.48
2022-07-31T05:09:09.327Z,70.58
2022-07-31T05:10:07.095Z,70.09
2022-07-31T05:11:06.087Z,69.29
2022-07-31T05:12:06.438Z,68.00
2022-07-31T05:13:06.063Z,68.32
2022-07-31T05:14:06.052Z,67.84
2022-07-31T05:15:06.044Z,69.29
2022-07-31T05:16:06.054Z,67.03
2022-07-31T05:17:06.055Z,67.84
2022-07-31T05:18:06.012Z,70.74
2022-07-31T05:19:06.006Z,69.61
2022-07-31T05:20:06.996Z,67.51
2022-07-31T05:21:05.985Z,65.26
2022-07-31T05:22:06.332Z,66.55
2022-07-31T05:23:06.567Z,68.00
2022-07-31T05:24:05.955Z,68.48
2022-07-31T05:25:05.946Z,69.45
2022-07-31T05:26:05.939Z,65.90
2022-07-31T05:27:05.929Z,70.42
2022-07-31T05:28:09.718Z,68.96
2022-07-31T05:29:05.903Z,67.51
2022-07-31T05:30:05.896Z,68.64
2022-07-31T05:31:05.889Z,67.84
2022-07-31T05:32:05.878Z,67.19
2022-07-31T05:33:05.884Z,64.29
2022-07-31T05:34:05.860Z,65.58
2022-07-31T05:35:05.854Z,65.90
2022-07-31T05:36:05.843Z,65.26
2022-07-31T05:37:05.836Z,66.87
2022-07-31T05:38:05.836Z,67.19
2022-07-31T05:39:06.818Z,66.55
2022-07-31T05:40:05.862Z,65.58
2022-07-31T05:41:05.790Z,65.74
2022-07-31T05:42:06.241Z,64.78
2022-07-31T05:43:05.810Z,67.19
2022-07-31T05:44:05.765Z,66.39
2022-07-31T05:45:05.753Z,67.19
2022-07-31T05:46:05.740Z,64.45
2022-07-31T05:47:05.732Z,68.96
2022-07-31T05:48:05.765Z,65.42
2022-07-31T05:49:05.771Z,66.71
2022-07-31T05:50:05.712Z,67.35
2022-07-31T05:51:05.905Z,66.55
2022-07-31T05:52:06.122Z,66.39
2022-07-31T05:53:05.677Z,65.26
2022-07-31T05:54:05.705Z,66.55
2022-07-31T05:55:05.663Z,65.58
2022-07-31T05:56:05.643Z,69.61
2022-07-31T05:57:05.634Z,65.90
2022-07-31T05:58:05.632Z,66.87
2022-07-31T05:59:05.633Z,67.19
2022-07-31T06:00:05.637Z,65.90
2022-07-31T06:01:05.624Z,67.84
2022-07-31T06:02:05.916Z,65.58
2022-07-31T06:03:05.581Z,65.58
2022-07-31T06:04:05.586Z,65.90
2022-07-31T06:05:05.564Z,64.61
2022-07-31T06:06:05.549Z,67.03
2022-07-31T06:07:05.539Z,65.90
2022-07-31T06:08:05.527Z,67.51
2022-07-31T06:09:05.557Z,67.19
2022-07-31T06:10:05.508Z,67.84
2022-07-31T06:11:05.497Z,67.19
2022-07-31T06:12:05.919Z,65.42
2022-07-31T06:13:05.484Z,66.87
2022-07-31T06:14:05.514Z,65.26
2022-07-31T06:15:05.457Z,64.94
2022-07-31T06:16:05.448Z,67.51
2022-07-31T06:17:05.440Z,64.45
2022-07-31T06:18:05.429Z,65.74
2022-07-31T06:19:05.417Z,65.10
2022-07-31T06:20:05.426Z,66.55
2022-07-31T06:21:05.400Z,66.71
2022-07-31T06:22:05.723Z,65.90
2022-07-31T06:23:19.794Z,68.96
2022-07-31T06:24:06.367Z,66.06
2022-07-31T06:25:05.373Z,66.55
2022-07-31T06:26:05.345Z,67.51
2022-07-31T06:27:05.339Z,65.74
2022-07-31T06:28:05.404Z,66.23
2022-07-31T06:29:06.312Z,66.55
2022-07-31T06:30:05.317Z,66.87
2022-07-31T06:31:05.297Z,65.10
2022-07-31T06:32:05.647Z,66.87
2022-07-31T06:33:08.256Z,67.03
2022-07-31T06:34:05.260Z,66.87
2022-07-31T06:35:05.306Z,65.10
2022-07-31T06:36:05.241Z,67.35
2022-07-31T06:37:05.254Z,68.64
2022-07-31T06:38:05.226Z,67.51
2022-07-31T06:39:05.217Z,67.51
2022-07-31T06:40:05.249Z,66.23
2022-07-31T06:41:06.194Z,64.61
2022-07-31T06:42:05.397Z,63.97
2022-07-31T06:43:06.980Z,66.39
2022-07-31T06:44:06.180Z,65.90
2022-07-31T06:45:05.152Z,65.42
2022-07-31T06:46:05.164Z,65.74
2022-07-31T06:47:05.136Z,66.71
2022-07-31T06:48:06.130Z,66.87
2022-07-31T06:49:08.782Z,66.23
2022-07-31T06:50:06.110Z,67.03
2022-07-31T06:51:31.418Z,68.48
2022-07-31T06:52:07.161Z,65.90
2022-07-31T06:53:05.076Z,66.71
2022-07-31T06:54:05.066Z,65.74
2022-07-31T06:55:05.058Z,65.10
2022-07-31T06:56:05.060Z,65.10
2022-07-31T06:57:05.034Z,66.87
2022-07-31T06:58:05.028Z,65.42
2022-07-31T06:59:05.018Z,64.61
2022-07-31T07:00:19.877Z,66.55
2022-07-31T07:01:07.074Z,65.42
2022-07-31T07:02:05.188Z,63.33
2022-07-31T07:03:04.976Z,64.61
2022-07-31T07:04:04.966Z,65.58
2022-07-31T07:05:06.801Z,66.23
2022-07-31T07:06:04.960Z,65.74
2022-07-31T07:07:04.939Z,65.42
2022-07-31T07:08:04.925Z,66.87
2022-07-31T07:09:04.907Z,65.90
2022-07-31T07:10:04.949Z,65.58
2022-07-31T07:11:04.923Z,67.03
2022-07-31T07:12:05.079Z,65.26
2022-07-31T07:13:04.875Z,65.42
2022-07-31T07:14:04.868Z,68.16
2022-07-31T07:15:04.855Z,64.94
2022-07-31T07:16:04.891Z,65.42
2022-07-31T07:17:04.836Z,67.51
2022-07-31T07:18:04.831Z,66.23
2022-07-31T07:19:04.815Z,67.03
2022-07-31T07:20:04.807Z,66.23
2022-07-31T07:21:04.808Z,66.55
2022-07-31T07:22:05.085Z,67.19
2022-07-31T07:23:04.780Z,65.42
2022-07-31T07:24:04.769Z,68.00
2022-07-31T07:25:04.782Z,65.26
2022-07-31T07:26:04.751Z,66.55
2022-07-31T07:27:04.758Z,67.35
2022-07-31T07:28:04.732Z,67.35
2022-07-31T07:29:04.719Z,66.23
2022-07-31T07:30:04.754Z,65.26
2022-07-31T07:31:04.714Z,65.10
2022-07-31T07:32:04.902Z,64.13
2022-07-31T07:33:04.684Z,67.51
2022-07-31T07:34:04.671Z,67.51
2022-07-31T07:35:04.663Z,66.55
2022-07-31T07:36:04.657Z,65.42
2022-07-31T07:37:04.693Z,66.55
2022-07-31T07:38:04.629Z,64.61
2022-07-31T07:39:04.622Z,67.03
2022-07-31T07:40:04.634Z,66.71
2022-07-31T07:41:04.593Z,67.84
2022-07-31T07:42:04.831Z,66.23
2022-07-31T07:43:04.591Z,66.87
2022-07-31T07:44:04.565Z,66.39
2022-07-31T07:45:06.616Z,65.74
2022-07-31T07:46:04.548Z,66.87
2022-07-31T07:47:04.536Z,67.03
2022-07-31T07:48:07.106Z,64.29
2022-07-31T07:49:04.582Z,67.03
2022-07-31T07:50:04.524Z,68.00
2022-07-31T07:51:04.495Z,66.55
2022-07-31T07:52:04.484Z,65.90
2022-07-31T07:53:04.492Z,67.84
2022-07-31T07:54:04.467Z,67.84
2022-07-31T07:55:04.458Z,67.84
2022-07-31T07:56:04.448Z,66.55
2022-07-31T07:57:04.445Z,65.26
2022-07-31T07:58:06.738Z,65.74
2022-07-31T07:59:05.416Z,68.32
2022-07-31T08:00:05.409Z,64.78
2022-07-31T08:01:04.438Z,67.03
2022-07-31T08:02:04.538Z,68.16
2022-07-31T08:03:49.253Z,67.35
2022-07-31T08:04:05.368Z,67.35
2022-07-31T08:05:04.360Z,68.16
2022-07-31T08:06:04.354Z,68.64
2022-07-31T08:07:04.343Z,68.16
2022-07-31T08:08:04.360Z,67.51
2022-07-31T08:09:04.318Z,68.48
2022-07-31T08:10:04.313Z,63.97
2022-07-31T08:11:04.306Z,65.74
2022-07-31T08:12:04.516Z,66.71
2022-07-31T08:13:04.281Z,68.16
2022-07-31T08:14:04.285Z,66.87
2022-07-31T08:15:04.266Z,65.26
2022-07-31T08:16:04.255Z,64.45
2022-07-31T08:17:04.240Z,66.23
2022-07-31T08:18:04.231Z,65.58
2022-07-31T08:19:04.237Z,66.23
2022-07-31T08:20:04.213Z,65.90
2022-07-31T08:21:04.203Z,65.42
2022-07-31T08:22:04.281Z,67.51
2022-07-31T08:23:04.182Z,67.03
2022-07-31T08:24:04.200Z,63.65
2022-07-31T08:25:05.307Z,65.42
2022-07-31T08:26:04.157Z,65.42
2022-07-31T08:27:04.142Z,66.87
2022-07-31T08:28:05.565Z,66.55
2022-07-31T08:29:05.115Z,66.55
2022-07-31T08:30:04.119Z,68.80
2022-07-31T08:31:04.109Z,67.03
2022-07-31T08:32:04.277Z,65.58
2022-07-31T08:33:04.086Z,67.35
2022-07-31T08:34:04.078Z,65.74
2022-07-31T08:35:04.083Z,66.55
2022-07-31T08:36:04.058Z,67.51
2022-07-31T08:37:57.613Z,68.16
2022-07-31T08:38:05.178Z,67.03
2022-07-31T08:39:05.029Z,67.03
2022-07-31T08:40:04.037Z,65.90
2022-07-31T08:41:04.011Z,66.71
2022-07-31T08:42:04.288Z,68.00
2022-07-31T08:43:19.381Z,67.35
2022-07-31T08:44:05.983Z,68.48
2022-07-31T08:45:03.991Z,68.96
2022-07-31T08:46:03.964Z,68.80
2022-07-31T08:47:03.954Z,69.61
2022-07-31T08:48:03.947Z,68.96
2022-07-31T08:49:04.094Z,69.13
2022-07-31T08:50:03.958Z,67.51
2022-07-31T08:51:03.919Z,66.87
2022-07-31T08:52:04.176Z,68.16
2022-07-31T08:53:03.896Z,67.84
2022-07-31T08:54:03.885Z,66.87
2022-07-31T08:55:03.919Z,68.64
2022-07-31T08:56:03.870Z,65.90
2022-07-31T08:57:04.028Z,67.35
2022-07-31T08:58:03.841Z,67.51
2022-07-31T08:59:04.839Z,66.39
2022-07-31T09:00:03.829Z,66.55
2022-07-31T09:01:03.874Z,66.55
2022-07-31T09:02:03.977Z,67.03
2022-07-31T09:03:03.797Z,67.03
2022-07-31T09:04:03.791Z,67.03
2022-07-31T09:05:03.777Z,68.32
2022-07-31T09:06:03.785Z,68.00
2022-07-31T09:07:04.125Z,67.51
2022-07-31T09:08:03.749Z,67.51
2022-07-31T09:09:04.739Z,67.84
2022-07-31T09:10:03.721Z,66.39
2022-07-31T09:11:05.850Z,68.00
2022-07-31T09:12:03.713Z,66.87
2022-07-31T09:13:03.704Z,67.03
2022-07-31T09:14:03.732Z,67.68
2022-07-31T09:15:03.681Z,65.90
2022-07-31T09:16:03.696Z,66.55
2022-07-31T09:17:03.875Z,65.10
2022-07-31T09:18:03.649Z,68.00
2022-07-31T09:19:03.643Z,66.55
2022-07-31T09:20:04.678Z,66.71
2022-07-31T09:21:03.639Z,68.16
2022-07-31T09:22:07.202Z,64.45
2022-07-31T09:23:04.609Z,63.97
2022-07-31T09:24:03.588Z,64.78
2022-07-31T09:25:03.579Z,63.65
2022-07-31T09:26:03.590Z,64.94
2022-07-31T09:27:05.452Z,64.29
2022-07-31T09:28:03.557Z,64.13
2022-07-31T09:29:03.546Z,64.61
2022-07-31T09:30:03.545Z,63.65
2022-07-31T09:31:03.561Z,65.74
2022-07-31T09:32:03.513Z,66.23
2022-07-31T09:33:03.499Z,66.23
2022-07-31T09:34:03.494Z,65.26
2022-07-31T09:35:03.485Z,67.51
2022-07-31T09:36:03.515Z,66.23
2022-07-31T09:37:03.819Z,65.26
2022-07-31T09:38:04.578Z,66.39
2022-07-31T09:39:04.283Z,63.16
2022-07-31T09:40:03.430Z,64.78
2022-07-31T09:41:03.422Z,64.94
2022-07-31T09:42:16.501Z,65.74
2022-07-31T09:43:04.406Z,65.26
2022-07-31T09:44:10.395Z,67.19
2022-07-31T09:45:04.387Z,64.45
2022-07-31T09:46:03.376Z,65.26
2022-07-31T09:47:03.598Z,66.06
2022-07-31T09:48:03.366Z,67.51
2022-07-31T09:49:03.388Z,67.68
2022-07-31T09:50:03.340Z,68.48
2022-07-31T09:51:03.330Z,69.29
2022-07-31T09:52:03.333Z,67.51
2022-07-31T09:53:03.341Z,67.03
2022-07-31T09:54:03.300Z,64.78
2022-07-31T09:55:03.289Z,67.35
2022-07-31T09:56:04.281Z,65.90
2022-07-31T09:57:03.546Z,66.39
2022-07-31T09:58:03.256Z,63.81
2022-07-31T09:59:03.253Z,64.94
2022-07-31T10:00:03.245Z,66.06
2022-07-31T10:01:03.330Z,65.26
2022-07-31T10:02:03.236Z,67.19
2022-07-31T10:03:03.215Z,67.19
2022-07-31T10:04:03.203Z,67.68
2022-07-31T10:05:03.197Z,66.23
2022-07-31T10:06:03.188Z,67.51
2022-07-31T10:07:03.406Z,67.51
2022-07-31T10:08:03.166Z,66.06
2022-07-31T10:09:03.150Z,63.00
2022-07-31T10:10:03.150Z,62.04
2022-07-31T10:11:03.138Z,63.49
2022-07-31T10:12:03.170Z,62.36
2022-07-31T10:13:03.119Z,61.55
2022-07-31T10:14:03.115Z,61.87
2022-07-31T10:15:03.100Z,61.55
2022-07-31T10:16:03.088Z,62.68
2022-07-31T10:17:03.307Z,63.81
2022-07-31T10:18:03.073Z,62.68
2022-07-31T10:19:03.062Z,63.00
2022-07-31T10:20:03.061Z,62.36
2022-07-31T10:21:03.038Z,61.87
2022-07-31T10:22:03.033Z,62.20
2022-07-31T10:23:03.039Z,63.00
2022-07-31T10:24:03.013Z,62.36
2022-07-31T10:25:03.008Z,61.87
2022-07-31T10:26:03.003Z,63.81
2022-07-31T10:27:08.001Z,62.68
2022-07-31T10:28:03.993Z,62.84
2022-07-31T10:29:02.965Z,64.45
2022-07-31T10:30:02.961Z,66.23
2022-07-31T10:31:02.948Z,65.42
2022-07-31T10:32:02.941Z,65.58
2022-07-31T10:33:02.990Z,65.58
2022-07-31T10:34:03.925Z,64.13
2022-07-31T10:35:02.911Z,63.49
2022-07-31T10:36:02.901Z,65.58
2022-07-31T10:37:03.077Z,65.26
2022-07-31T10:38:02.911Z,65.10
2022-07-31T10:39:02.872Z,65.42
2022-07-31T10:40:02.864Z,63.65
2022-07-31T10:41:02.855Z,62.84
2022-07-31T10:42:02.843Z,61.87
2022-07-31T10:43:03.106Z,61.71
2022-07-31T10:44:02.855Z,60.10
2022-07-31T10:45:02.815Z,60.75
2022-07-31T10:46:02.808Z,61.07
2022-07-31T10:47:03.096Z,58.97
2022-07-31T10:48:02.781Z,61.23
2022-07-31T10:49:08.245Z,62.52
2022-07-31T10:50:03.774Z,61.23
2022-07-31T10:51:02.758Z,60.75
2022-07-31T10:52:02.753Z,61.07
2022-07-31T10:53:02.739Z,62.84
2022-07-31T10:54:02.746Z,63.49
2022-07-31T10:55:02.727Z,62.84
2022-07-31T10:56:02.712Z,63.00
2022-07-31T10:57:02.922Z,61.71
2022-07-31T10:58:02.695Z,61.07
2022-07-31T10:59:02.698Z,62.52
2022-07-31T11:00:02.677Z,62.04
2022-07-31T11:01:02.671Z,60.91
2022-07-31T11:02:02.719Z,61.39
2022-07-31T11:03:02.652Z,63.00
2022-07-31T11:04:03.654Z,61.23
2022-07-31T11:05:02.632Z,61.07
2022-07-31T11:06:03.236Z,62.04
2022-07-31T11:07:03.855Z,63.16
2022-07-31T11:08:02.603Z,62.04
2022-07-31T11:09:02.624Z,63.00
2022-07-31T11:10:02.585Z,63.00
2022-07-31T11:11:03.472Z,63.81
2022-07-31T11:12:02.577Z,62.68
2022-07-31T11:13:02.564Z,60.26
2022-07-31T11:14:02.563Z,60.10
2022-07-31T11:15:02.539Z,59.30
2022-07-31T11:16:02.525Z,59.94
2022-07-31T11:17:02.986Z,60.75
2022-07-31T11:18:23.132Z,61.55
2022-07-31T11:19:03.514Z,59.14
2022-07-31T11:20:02.491Z,59.14
2022-07-31T11:21:13.688Z,61.87
2022-07-31T11:22:31.421Z,61.07
2022-07-31T11:23:03.479Z,60.59
2022-07-31T11:24:05.024Z,60.91
2022-07-31T11:25:03.444Z,62.04
2022-07-31T11:26:02.432Z,61.71
2022-07-31T11:27:02.803Z,63.16
2022-07-31T11:28:03.422Z,63.33
2022-07-31T11:30:00.805Z,61.55
2022-07-31T11:30:05.771Z,61.23
2022-07-31T11:31:04.383Z,61.23
2022-07-31T11:32:02.379Z,61.39
2022-07-31T11:33:02.362Z,61.87
2022-07-31T11:34:02.356Z,61.87
2022-07-31T11:35:02.369Z,60.75
2022-07-31T11:36:02.343Z,61.23
2022-07-31T11:37:02.379Z,60.59
2022-07-31T11:38:02.317Z,61.39
2022-07-31T11:39:03.661Z,61.71
2022-07-31T11:40:02.336Z,62.04
2022-07-31T11:41:02.291Z,62.84
2022-07-31T11:42:02.308Z,61.39
2022-07-31T11:43:25.237Z,63.33
2022-07-31T11:44:04.272Z,59.62
2022-07-31T11:45:02.279Z,59.14
2022-07-31T11:46:03.245Z,61.71
2022-07-31T11:47:02.745Z,61.39
2022-07-31T11:48:11.996Z,59.62
2022-07-31T11:49:03.243Z,59.62
2022-07-31T11:50:02.368Z,59.78
2022-07-31T11:51:02.194Z,59.78
2022-07-31T11:52:02.185Z,60.10
2022-07-31T11:53:02.178Z,61.55
2022-07-31T11:54:02.200Z,62.20
2022-07-31T11:55:08.224Z,62.68
2022-07-31T11:56:04.149Z,61.23
2022-07-31T11:57:02.554Z,63.33
2022-07-31T11:58:02.121Z,62.20
2022-07-31T11:59:02.120Z,61.23
2022-07-31T12:00:02.107Z,62.20
2022-07-31T12:01:03.115Z,59.78
2022-07-31T12:02:02.092Z,60.91
2022-07-31T12:03:02.442Z,62.04
2022-07-31T12:04:08.651Z,61.23
2022-07-31T12:05:03.067Z,60.42
2022-07-31T12:06:02.068Z,59.78
2022-07-31T12:07:02.202Z,60.59
2022-07-31T12:08:02.032Z,60.26
2022-07-31T12:09:02.022Z,64.45
2022-07-31T12:10:03.772Z,59.78
2022-07-31T12:11:03.050Z,59.94
2022-07-31T12:12:01.998Z,59.46
2022-07-31T12:13:01.991Z,60.10
2022-07-31T12:14:01.978Z,61.23
2022-07-31T12:15:01.972Z,61.71
2022-07-31T12:16:01.988Z,62.04
2022-07-31T12:17:02.185Z,61.39
2022-07-31T12:18:01.983Z,61.55
2022-07-31T12:19:01.929Z,62.04
2022-07-31T12:20:01.921Z,62.20
2022-07-31T12:21:01.926Z,62.20
2022-07-31T12:22:01.923Z,62.20
2022-07-31T12:23:01.891Z,62.04
2022-07-31T12:24:01.959Z,62.36
2022-07-31T12:25:04.953Z,63.65
2022-07-31T12:26:02.899Z,61.39
2022-07-31T12:27:01.922Z,63.00
2022-07-31T12:28:01.843Z,63.00
2022-07-31T12:29:01.823Z,63.00
2022-07-31T12:30:01.821Z,62.20
2022-07-31T12:31:01.812Z,62.36
2022-07-31T12:32:01.817Z,63.00
2022-07-31T12:33:01.789Z,61.71
2022-07-31T12:34:01.780Z,63.00
2022-07-31T12:35:01.772Z,62.84
2022-07-31T12:36:01.765Z,63.16
2022-07-31T12:37:02.090Z,63.16
2022-07-31T12:38:10.288Z,61.23
2022-07-31T12:39:02.735Z,60.59
2022-07-31T12:40:01.860Z,63.16
2022-07-31T12:41:01.737Z,62.52
2022-07-31T12:42:01.742Z,62.04
2022-07-31T12:43:02.701Z,61.23
2022-07-31T12:44:01.685Z,62.68
2022-07-31T12:45:17.831Z,60.75
2022-07-31T12:46:02.675Z,62.68
2022-07-31T12:47:01.825Z,63.49
2022-07-31T12:48:01.670Z,61.87
2022-07-31T12:49:01.692Z,62.68
2022-07-31T12:50:01.644Z,62.20
2022-07-31T12:51:01.625Z,61.71
2022-07-31T12:52:01.618Z,63.33